Time;durP1;ratioP1;P1;durP2;ratioP2;P2;SDS_P1;SDS_P2;PMS_P1;PMS_P2;Temp;Humidity;BMP_temperature;BMP_pressure;BME280_temperature;BME280_humidity;BME280_pressure;Samples;Min_cycle;Max_cycle;Signal;HPM_P1;HPM_P2
2023/07/06 00:03:06;;;;;;;11.70;6.10;;;;;;;15.97;100.00;99624.92;108942;1260;62501;-65
2023/07/06 00:05:55;;;;;;;11.90;5.60;;;;;;;15.95;100.00;99623.71;108834;1260;73082;-66
2023/07/06 00:08:44;;;;;;;11.90;6.30;;;;;;;15.93;100.00;99625.80;108824;1260;67496;-66
2023/07/06 00:11:38;;;;;;;14.20;6.40;;;;;;;15.90;100.00;99621.63;108925;1260;71503;-64
2023/07/06 00:14:26;;;;;;;11.40;5.80;;;;;;;15.87;100.00;99617.27;108866;1260;59624;-65
2023/07/06 00:17:17;;;;;;;11.30;6.20;;;;;;;15.85;100.00;99611.98;109045;1257;59065;-65
2023/07/06 00:20:10;;;;;;;12.90;5.70;;;;;;;15.83;100.00;99609.64;109065;1257;72775;-64
2023/07/06 00:22:59;;;;;;;12.30;5.40;;;;;;;15.80;100.00;99610.98;108973;1257;66550;-66
2023/07/06 00:25:50;;;;;;;12.00;5.60;;;;;;;15.78;100.00;99616.27;108052;1257;1212620;-62
2023/07/06 00:28:39;;;;;;;13.50;5.90;;;;;;;15.74;100.00;99616.99;108983;1257;59611;-63
2023/07/06 00:31:32;;;;;;;10.80;5.70;;;;;;;15.71;100.00;99619.31;109013;1257;61382;-66
2023/07/06 00:34:23;;;;;;;11.90;5.00;;;;;;;15.68;100.00;99616.95;109042;1257;73329;-63
2023/07/06 00:37:12;;;;;;;11.60;5.40;;;;;;;15.66;100.00;99615.00;109027;1257;67658;-63
2023/07/06 00:40:01;;;;;;;12.30;5.40;;;;;;;15.62;100.00;99613.45;108978;1257;71450;-66
2023/07/06 00:42:50;;;;;;;14.20;6.00;;;;;;;15.57;100.00;99614.89;108953;1263;59013;-63
2023/07/06 00:45:42;;;;;;;12.00;5.90;;;;;;;15.54;100.00;99613.21;109036;1257;59305;-62
2023/07/06 00:48:36;;;;;;;11.40;5.20;;;;;;;15.49;100.00;99618.40;109026;1257;73615;-66
2023/07/06 00:51:34;;;;;;;10.70;5.20;;;;;;;15.44;100.00;99619.31;109050;1257;67131;-66
2023/07/06 00:54:25;;;;;;;12.70;5.80;;;;;;;15.38;100.00;99617.18;109074;1257;73697;-63
2023/07/06 00:57:19;;;;;;;12.10;5.80;;;;;;;15.34;100.00;99617.98;109007;1257;59445;-65
2023/07/06 01:00:08;;;;;;;12.70;5.90;;;;;;;15.29;100.00;99620.30;108950;1257;60433;-65
2023/07/06 01:03:02;;;;;;;10.60;5.20;;;;;;;15.26;100.00;99626.68;109004;1257;73189;-65
2023/07/06 01:05:58;;;;;;;11.00;5.30;;;;;;;15.22;100.00;99626.80;109040;1257;68047;-67
2023/07/06 01:08:52;;;;;;;11.90;5.40;;;;;;;15.18;100.00;99629.35;108902;1257;73679;-65
2023/07/06 01:11:43;;;;;;;12.10;5.90;;;;;;;15.13;100.00;99626.39;109085;1257;60298;-66
2023/07/06 01:14:32;;;;;;;12.70;6.00;;;;;;;15.09;100.00;99628.23;109165;1257;60406;-66
2023/07/06 01:17:53;;;;;;;11.70;5.30;;;;;;;15.06;100.00;99627.35;108987;1257;72229;-64
2023/07/06 01:20:54;;;;;;;13.30;5.60;;;;;;;15.01;100.00;99620.39;109055;1257;68036;-64
2023/07/06 01:24:34;;;;;;;14.40;5.70;;;;;;;14.96;100.00;99623.00;109024;1257;72611;-66
2023/07/06 01:27:42;;;;;;;14.00;5.40;;;;;;;14.91;100.00;99614.55;109076;1257;58236;-67
2023/07/06 01:31:01;;;;;;;11.90;5.90;;;;;;;14.88;100.00;99614.32;109419;1257;59261;-64
2023/07/06 01:34:35;;;;;;;12.30;5.40;;;;;;;14.86;100.00;99610.13;109378;1257;71981;-66
2023/07/06 01:37:32;;;;;;;13.70;6.20;;;;;;;14.80;100.00;99621.20;108689;1265;65656;-66
2023/07/06 01:40:21;;;;;;;10.40;5.40;;;;;;;14.77;100.00;99621.69;108610;1265;71822;-66
2023/07/06 01:43:10;;;;;;;12.60;5.50;;;;;;;14.74;100.00;99612.96;108652;1265;58065;-65
2023/07/06 01:46:02;;;;;;;12.70;6.40;;;;;;;14.69;100.00;99607.87;108547;1265;60657;-64
2023/07/06 01:48:52;;;;;;;12.60;6.60;;;;;;;14.67;100.00;99610.82;108524;1265;69999;-65
2023/07/06 01:51:56;;;;;;;11.90;5.40;;;;;;;14.64;100.00;99618.58;108636;1265;66767;-62
2023/07/06 01:54:58;;;;;;;12.10;5.80;;;;;;;14.62;100.00;99617.09;108594;1265;72799;-63
2023/07/06 01:57:54;;;;;;;12.90;5.70;;;;;;;14.61;100.00;99620.84;108580;1265;58139;-64
2023/07/06 02:01:09;;;;;;;11.40;5.50;;;;;;;14.57;100.00;99622.61;108652;1265;60476;-64
2023/07/06 02:03:58;;;;;;;11.30;5.40;;;;;;;14.55;100.00;99616.77;108268;1269;73251;-65
2023/07/06 02:06:53;;;;;;;12.70;5.70;;;;;;;14.52;100.00;99617.63;108454;1269;66692;-64
2023/07/06 02:09:44;;;;;;;11.80;6.10;;;;;;;14.49;100.00;99621.12;108366;1269;72730;-63
2023/07/06 02:12:32;;;;;;;14.40;6.20;;;;;;;14.46;100.00;99620.33;108539;1261;59637;-63
2023/07/06 02:15:24;;;;;;;11.50;6.20;;;;;;;14.43;100.00;99627.83;108804;1262;60040;-64
2023/07/06 02:18:12;;;;;;;12.70;6.30;;;;;;;14.40;100.00;99632.71;108817;1262;70779;-64
2023/07/06 02:21:02;;;;;;;14.60;5.90;;;;;;;14.35;100.00;99635.75;108817;1262;69086;-64
2023/07/06 02:23:50;;;;;;;11.60;6.10;;;;;;;14.35;100.00;99640.91;108808;1262;73248;-64
2023/07/06 02:26:41;;;;;;;13.80;6.50;;;;;;;14.34;100.00;99631.60;108764;1262;59750;-67
2023/07/06 02:29:29;;;;;;;13.00;6.30;;;;;;;14.31;100.00;99641.31;108782;1262;58714;-64
2023/07/06 02:32:18;;;;;;;13.30;5.80;;;;;;;14.27;100.00;99647.23;108767;1262;72264;-66
2023/07/06 02:35:12;;;;;;;11.50;6.00;;;;;;;14.23;100.00;99654.28;109035;1258;67388;-63
2023/07/06 02:38:00;;;;;;;11.40;5.70;;;;;;;14.19;100.00;99656.44;109022;1258;72734;-64
2023/07/06 02:40:52;;;;;;;12.70;5.80;;;;;;;14.15;100.00;99656.84;108986;1259;60114;-64
2023/07/06 02:43:41;;;;;;;13.90;6.00;;;;;;;14.12;100.00;99656.61;108885;1259;60385;-64
2023/07/06 02:46:30;;;;;;;14.20;5.50;;;;;;;14.09;100.00;99666.95;109017;1259;71276;-63
2023/07/06 02:49:21;;;;;;;9.90;5.10;;;;;;;14.08;100.00;99664.98;108976;1258;66528;-64
2023/07/06 02:52:12;;;;;;;11.70;5.50;;;;;;;14.08;100.00;99670.36;108873;1263;73664;-65
2023/07/06 02:55:09;;;;;;;11.40;5.20;;;;;;;14.06;100.00;99669.16;108983;1258;57984;-63
2023/07/06 02:58:03;;;;;;;13.90;5.50;;;;;;;14.04;100.00;99676.44;108988;1258;61517;-66
2023/07/06 03:00:54;;;;;;;11.90;5.50;;;;;;;14.01;100.00;99680.33;108980;1259;72407;-65
2023/07/06 03:03:47;;;;;;;12.90;5.60;;;;;;;13.97;100.00;99683.36;109050;1258;67654;-64
2023/07/06 03:06:40;;;;;;;11.00;5.50;;;;;;;13.93;100.00;99680.20;109030;1259;71269;-64
2023/07/06 03:09:36;;;;;;;12.50;5.60;;;;;;;13.90;100.00;99681.59;108972;1259;59606;-66
2023/07/06 03:12:24;;;;;;;11.80;5.80;;;;;;;13.87;100.00;99689.90;108893;1258;59319;-64
2023/07/06 03:15:16;;;;;;;12.60;5.80;;;;;;;13.83;100.00;99692.40;108935;1258;73192;-66
2023/07/06 03:18:08;;;;;;;11.80;5.30;;;;;;;13.81;100.00;99693.17;108960;1258;69053;-66
2023/07/06 03:20:58;;;;;;;11.60;5.40;;;;;;;13.78;100.00;99693.07;109001;1258;72591;-63
2023/07/06 03:23:49;;;;;;;12.20;5.90;;;;;;;13.74;100.00;99688.45;108934;1259;59664;-66
2023/07/06 03:26:39;;;;;;;10.60;5.00;;;;;;;13.73;100.00;99693.31;108922;1258;61652;-66
2023/07/06 03:29:35;;;;;;;14.30;5.80;;;;;;;13.73;100.00;99696.45;108964;1258;72216;-62
2023/07/06 03:32:26;;;;;;;9.30;4.80;;;;;;;13.71;100.00;99699.22;108936;1259;68902;-65
2023/07/06 03:35:21;;;;;;;11.10;4.70;;;;;;;13.71;100.00;99704.23;108936;1259;73329;-66
2023/07/06 03:38:10;;;;;;;11.20;5.10;;;;;;;13.74;100.00;99703.83;109027;1259;59599;-66
2023/07/06 03:41:03;;;;;;;11.00;4.60;;;;;;;13.77;100.00;99706.20;108937;1260;61349;-66
2023/07/06 03:43:56;;;;;;;11.30;4.80;;;;;;;13.81;100.00;99705.28;108878;1261;72917;-66
2023/07/06 03:46:45;;;;;;;11.90;4.40;;;;;;;13.84;100.00;99706.92;108872;1261;66759;-63
2023/07/06 03:49:34;;;;;;;13.30;4.10;;;;;;;13.90;99.73;99709.05;108771;1264;71125;-64
2023/07/06 03:52:22;;;;;;;8.50;3.70;;;;;;;13.98;98.32;99713.04;108910;1261;58042;-64
2023/07/06 03:55:21;;;;;;;7.90;3.80;;;;;;;14.04;97.02;99715.17;108780;1262;60232;-65
2023/07/06 03:58:20;;;;;;;10.20;3.70;;;;;;;14.09;95.66;99714.69;108846;1261;71002;-65
2023/07/06 04:01:10;;;;;;;8.60;3.50;;;;;;;14.14;94.74;99716.48;108792;1261;68470;-65
2023/07/06 04:03:58;;;;;;;11.20;3.50;;;;;;;14.21;93.76;99721.20;108810;1262;72519;-67
2023/07/06 04:06:51;;;;;;;8.10;3.40;;;;;;;14.28;93.11;99722.61;108832;1263;57992;-64
2023/07/06 04:09:39;;;;;;;10.00;3.90;;;;;;;14.34;93.17;99726.35;108796;1261;61337;-66
2023/07/06 04:12:28;;;;;;;11.00;3.70;;;;;;;14.35;92.66;99723.50;108872;1261;71003;-66
2023/07/06 04:15:17;;;;;;;9.70;3.40;;;;;;;14.35;92.01;99720.30;108823;1260;68383;-66
2023/07/06 04:18:06;;;;;;;8.20;3.50;;;;;;;14.44;91.69;99725.52;108745;1260;70803;-67
2023/07/06 04:21:00;;;;;;;9.80;3.50;;;;;;;14.50;90.12;99723.13;108915;1257;60090;-67
2023/07/06 04:23:48;;;;;;;9.50;3.70;;;;;;;14.57;89.38;99725.61;109056;1257;60386;-68
2023/07/06 04:26:37;;;;;;;8.60;2.80;;;;;;;14.66;87.67;99734.65;108989;1257;72511;-68
2023/07/06 04:29:29;;;;;;;7.90;3.00;;;;;;;14.74;86.85;99730.41;109031;1257;67289;-68
2023/07/06 04:32:21;;;;;;;7.90;3.10;;;;;;;14.89;86.63;99735.92;108902;1257;72619;-68
2023/07/06 04:35:12;;;;;;;7.80;3.10;;;;;;;15.06;84.61;99735.94;108966;1257;59508;-67
2023/07/06 04:38:03;;;;;;;10.30;3.50;;;;;;;15.29;84.22;99735.34;108924;1257;60366;-68
2023/07/06 04:40:52;;;;;;;9.40;3.40;;;;;;;15.57;81.93;99734.98;109113;1256;72853;-71
2023/07/06 04:43:44;;;;;;;6.90;2.80;;;;;;;15.88;80.53;99744.88;109041;1256;69007;-71
2023/07/06 04:46:32;;;;;;;7.90;3.30;;;;;;;16.20;77.60;99752.95;109093;1256;72485;-71
2023/07/06 04:49:20;;;;;;;7.30;2.60;;;;;;;16.58;75.39;99751.61;108927;1256;58802;-69
2023/07/06 04:52:11;;;;;;;8.10;3.00;;;;;;;17.09;72.31;99751.28;108893;1256;62369;-70
2023/07/06 04:55:08;;;;;;;7.80;2.70;;;;;;;17.70;68.76;99757.48;109002;1256;70692;-70
2023/07/06 04:58:05;;;;;;;7.90;2.60;;;;;;;18.26;65.91;99757.27;109208;1256;68352;-72
2023/07/06 05:00:54;;;;;;;7.30;2.40;;;;;;;18.82;64.27;99754.01;109097;1256;71464;-69
2023/07/06 05:03:42;;;;;;;8.10;2.60;;;;;;;19.33;61.07;99751.79;109146;1256;57703;-67
2023/07/06 05:06:31;;;;;;;10.50;2.30;;;;;;;19.81;58.46;99749.23;109185;1256;62039;-71
2023/07/06 05:09:19;;;;;;;7.30;2.30;;;;;;;20.17;56.65;99749.29;109082;1256;72299;-70
2023/07/06 05:12:10;;;;;;;6.70;2.20;;;;;;;20.66;56.20;99747.71;109069;1256;68997;-69
2023/07/06 05:14:58;;;;;;;8.10;2.10;;;;;;;21.14;55.15;99748.21;109186;1256;73545;-71
2023/07/06 05:17:49;;;;;;;10.20;2.20;;;;;;;21.51;52.36;99751.42;109071;1256;57803;-68
2023/07/06 05:20:40;;;;;;;10.20;2.50;;;;;;;21.85;52.38;99746.98;109035;1257;58725;-68
2023/07/06 05:23:28;;;;;;;8.40;2.10;;;;;;;22.22;50.36;99749.58;109007;1257;71922;-68
2023/07/06 05:26:20;;;;;;;7.50;2.10;;;;;;;22.60;49.31;99754.30;108951;1257;68594;-71
2023/07/06 05:29:10;;;;;;;7.20;2.10;;;;;;;22.96;48.07;99758.36;108918;1257;71886;-72
2023/07/06 05:32:03;;;;;;;6.80;2.30;;;;;;;23.30;46.85;99760.52;109062;1257;58007;-68
2023/07/06 05:34:55;;;;;;;8.40;2.40;;;;;;;23.44;44.73;99760.62;108734;1260;59106;-71
2023/07/06 05:37:54;;;;;;;6.50;2.10;;;;;;;23.61;44.67;99762.96;108827;1261;70738;-68
2023/07/06 05:40:46;;;;;;;6.50;1.90;;;;;;;23.87;44.31;99757.36;108907;1260;67673;-69
2023/07/06 05:43:34;;;;;;;6.70;2.20;;;;;;;24.04;43.98;99760.70;108507;1265;72565;-68
2023/07/06 05:46:26;;;;;;;7.40;1.90;;;;;;;24.25;41.70;99762.16;108536;1265;56922;-71
2023/07/06 05:49:14;;;;;;;7.40;2.00;;;;;;;24.29;41.34;99761.16;108504;1265;61347;-73
2023/07/06 05:52:06;;;;;;;7.40;2.00;;;;;;;24.31;41.41;99760.98;108523;1264;71067;-71
2023/07/06 05:54:56;;;;;;;11.70;2.20;;;;;;;24.27;40.94;99765.65;108603;1265;67981;-70
2023/07/06 05:57:46;;;;;;;8.60;2.00;;;;;;;24.48;40.74;99765.25;108674;1265;73804;-73
2023/07/06 06:00:36;;;;;;;7.20;2.20;;;;;;;24.59;40.44;99764.31;108468;1265;59034;-69
2023/07/06 06:03:26;;;;;;;6.20;2.20;;;;;;;24.79;40.04;99762.62;108664;1264;59991;-74
2023/07/06 06:06:15;;;;;;;7.00;1.90;;;;;;;25.16;39.94;99764.63;108790;1262;70773;-71
2023/07/06 06:09:04;;;;;;;7.00;1.90;;;;;;;25.52;38.26;99767.11;108878;1262;67631;-73
2023/07/06 06:11:52;;;;;;;7.10;1.70;;;;;;;25.65;37.14;99765.33;108757;1262;73218;-73
2023/07/06 06:14:52;;;;;;;7.10;1.90;;;;;;;25.84;37.38;99770.08;108901;1258;57000;-73
2023/07/06 06:17:44;;;;;;;8.40;1.70;;;;;;;26.16;36.88;99774.59;108894;1258;59425;-75
2023/07/06 06:20:38;;;;;;;7.60;1.80;;;;;;;26.35;36.09;99768.89;108980;1258;72298;-72
2023/07/06 06:23:32;;;;;;;6.50;1.50;;;;;;;26.62;35.40;99765.41;108960;1258;67922;-71
2023/07/06 06:26:21;;;;;;;6.80;1.50;;;;;;;26.79;34.39;99773.00;108927;1258;73681;-73
2023/07/06 06:29:11;;;;;;;6.60;1.80;;;;;;;27.48;33.30;99773.46;108983;1260;58016;-70
2023/07/06 06:32:02;;;;;;;6.30;1.70;;;;;;;28.21;31.71;99770.25;108989;1259;60157;-71
2023/07/06 06:34:52;;;;;;;5.90;1.40;;;;;;;28.96;30.73;99763.76;109076;1258;72363;-71
2023/07/06 06:37:43;;;;;;;7.90;1.60;;;;;;;29.55;29.96;99761.58;108970;1259;68697;-75
2023/07/06 06:40:36;;;;;;;6.20;1.30;;;;;;;29.87;29.17;99764.46;109046;1258;71299;-72
2023/07/06 06:43:27;;;;;;;6.10;1.40;;;;;;;29.84;28.63;99770.42;109024;1258;57350;-74
2023/07/06 06:46:16;;;;;;;5.80;1.40;;;;;;;29.92;28.77;99774.06;108991;1257;60363;-71
2023/07/06 06:49:05;;;;;;;5.50;1.30;;;;;;;30.23;28.61;99776.35;109215;1257;72290;-72
2023/07/06 06:51:53;;;;;;;6.80;1.40;;;;;;;30.60;27.43;99774.85;109042;1257;66463;-69
2023/07/06 06:54:41;;;;;;;6.40;1.20;;;;;;;31.06;27.82;99777.21;109038;1257;71518;-73
2023/07/06 06:57:34;;;;;;;5.80;1.60;;;;;;;31.35;26.91;99784.20;109056;1257;57090;-72
2023/07/06 07:00:21;;;;;;;7.50;1.30;;;;;;;31.49;26.64;99788.59;109147;1257;59541;-69
2023/07/06 07:03:11;;;;;;;6.40;1.30;;;;;;;31.86;26.54;99792.23;108961;1257;72049;-69
2023/07/06 07:06:11;;;;;;;9.20;1.40;;;;;;;31.81;25.45;99784.29;108926;1257;68583;-71
2023/07/06 07:09:00;;;;;;;6.00;1.20;;;;;;;31.90;25.98;99787.85;108946;1257;72388;-72
2023/07/06 07:11:49;;;;;;;6.20;1.00;;;;;;;32.22;25.50;99788.94;109005;1257;57712;-70
2023/07/06 07:14:40;;;;;;;4.80;1.10;;;;;;;32.33;25.11;99789.75;108974;1256;60440;-73
2023/07/06 07:17:28;;;;;;;7.50;1.30;;;;;;;32.41;25.08;99789.73;109002;1256;72402;-70
2023/07/06 07:20:18;;;;;;;5.20;1.00;;;;;;;32.31;24.87;99794.98;108961;1256;66656;-71
2023/07/06 07:23:07;;;;;;;5.90;1.00;;;;;;;32.56;24.80;99797.47;109093;1256;72320;-72
2023/07/06 07:25:56;;;;;;;5.80;1.20;;;;;;;32.73;24.27;99798.84;109196;1256;57248;-71
2023/07/06 07:28:48;;;;;;;5.10;1.00;;;;;;;32.81;23.99;99809.44;109027;1260;61137;-71
2023/07/06 07:31:38;;;;;;;6.20;1.10;;;;;;;32.95;24.02;99810.05;109026;1256;71060;-70
2023/07/06 07:34:27;;;;;;;5.20;1.00;;;;;;;33.18;24.17;99809.03;108950;1256;66737;-72
2023/07/06 07:37:21;;;;;;;5.60;1.10;;;;;;;33.62;23.77;99806.20;109182;1256;70750;-72
2023/07/06 07:40:15;;;;;;;4.70;1.00;;;;;;;33.96;23.69;99805.73;109119;1256;57435;-73
2023/07/06 07:43:05;;;;;;;6.20;1.10;;;;;;;33.88;22.77;99811.71;109216;1256;60090;-72
2023/07/06 07:46:02;;;;;;;5.50;1.00;;;;;;;33.93;22.97;99816.57;108963;1256;72959;-71
2023/07/06 07:48:50;;;;;;;4.20;0.90;;;;;;;33.95;22.68;99820.80;109070;1256;67924;-72
2023/07/06 07:51:39;;;;;;;6.00;1.00;;;;;;;33.99;22.48;99824.98;109087;1256;71400;-73
2023/07/06 07:54:30;;;;;;;5.30;1.00;;;;;;;34.14;22.13;99827.80;109002;1256;57126;-73
2023/07/06 07:57:19;;;;;;;5.90;1.10;;;;;;;34.30;21.65;99831.89;108994;1256;60099;-71
2023/07/06 08:00:10;;;;;;;6.90;1.00;;;;;;;34.63;21.57;99837.37;109006;1256;72341;-73
2023/07/06 08:03:06;;;;;;;5.40;1.00;;;;;;;34.63;21.15;99841.73;109150;1256;66424;-75
2023/07/06 08:06:05;;;;;;;5.90;1.00;;;;;;;34.77;21.10;99845.19;109032;1256;72778;-70
2023/07/06 08:08:54;;;;;;;4.70;0.90;;;;;;;34.71;20.88;99849.20;109110;1256;58149;-69
2023/07/06 08:11:46;;;;;;;4.70;0.90;;;;;;;34.73;21.22;99855.05;109134;1256;60058;-73
2023/07/06 08:14:41;;;;;;;4.80;0.90;;;;;;;34.71;20.73;99859.70;109089;1256;70627;-71
2023/07/06 08:17:29;;;;;;;7.70;1.20;;;;;;;34.78;20.94;99857.23;109026;1256;67508;-70
2023/07/06 08:20:17;;;;;;;4.70;1.00;;;;;;;34.63;20.96;99853.89;109213;1256;72772;-75
2023/07/06 08:23:29;;;;;;;5.70;1.10;;;;;;;34.01;21.45;99853.96;109106;1256;57386;-72
2023/07/06 08:26:31;;;;;;;4.90;1.10;;;;;;;34.18;21.74;99858.03;109087;1256;61000;-72
2023/07/06 08:29:19;;;;;;;6.60;1.00;;;;;;;33.59;21.97;99861.14;109038;1256;70928;-70
2023/07/06 08:32:12;;;;;;;4.90;0.90;;;;;;;33.54;21.58;99861.24;109198;1257;67951;-74
2023/07/06 08:35:01;;;;;;;5.20;0.90;;;;;;;33.53;21.78;99860.48;109170;1256;72666;-73
2023/07/06 08:37:50;;;;;;;5.30;1.30;;;;;;;33.83;21.89;99865.27;109127;1257;57946;-70
2023/07/06 08:40:40;;;;;;;5.10;1.00;;;;;;;33.98;21.61;99860.76;109102;1256;58829;-71
2023/07/06 08:43:27;;;;;;;5.50;1.10;;;;;;;33.39;21.74;99863.58;109111;1256;70968;-71
2023/07/06 08:46:16;;;;;;;5.60;1.00;;;;;;;33.10;22.42;99861.27;109108;1256;68158;-70
2023/07/06 08:49:20;;;;;;;5.10;1.20;;;;;;;32.70;22.52;99861.52;109055;1257;73922;-71
2023/07/06 08:52:11;;;;;;;6.20;1.50;;;;;;;31.88;23.62;99864.82;109050;1259;57075;-70
2023/07/06 08:55:13;;;;;;;6.80;1.30;;;;;;;32.14;23.42;99859.59;108975;1258;58901;-69
2023/07/06 08:58:03;;;;;;;5.20;1.20;;;;;;;32.79;22.76;99865.69;109038;1257;72166;-71
2023/07/06 09:01:05;;;;;;;5.50;1.10;;;;;;;33.15;22.48;99869.02;109076;1258;67107;-72
2023/07/06 09:04:06;;;;;;;6.70;1.20;;;;;;;33.62;22.03;99868.02;109087;1257;71072;-73
2023/07/06 09:06:58;;;;;;;5.30;1.10;;;;;;;33.59;21.50;99866.55;109140;1256;59131;-73
2023/07/06 09:09:48;;;;;;;6.10;1.20;;;;;;;33.69;21.45;99870.27;109092;1256;60401;-72
2023/07/06 09:12:36;;;;;;;5.60;1.10;;;;;;;33.64;21.57;99870.55;109163;1256;72015;-70
2023/07/06 09:15:30;;;;;;;5.30;1.10;;;;;;;33.33;21.49;99863.90;109090;1257;67764;-70
2023/07/06 09:18:19;;;;;;;6.60;1.20;;;;;;;32.87;22.17;99879.14;109149;1257;72594;-71
2023/07/06 09:21:09;;;;;;;5.40;1.20;;;;;;;32.46;22.50;99878.13;108985;1257;58254;-68
2023/07/06 09:23:58;;;;;;;4.90;1.10;;;;;;;32.45;22.70;99881.59;109174;1257;60578;-68
2023/07/06 09:26:46;;;;;;;6.00;1.10;;;;;;;32.69;22.50;99880.59;109050;1257;72137;-73
2023/07/06 09:29:37;;;;;;;5.20;1.10;;;;;;;32.35;22.94;99885.51;108525;1266;66518;-72
2023/07/06 09:32:32;;;;;;;5.30;1.00;;;;;;;31.70;23.10;99885.71;108473;1267;73270;-70
2023/07/06 09:35:24;;;;;;;5.60;1.30;;;;;;;31.95;23.48;99884.78;108590;1267;57102;-70
2023/07/06 09:38:16;;;;;;;7.10;1.30;;;;;;;32.29;22.73;99883.66;108658;1267;58752;-70
2023/07/06 09:41:22;;;;;;;5.90;1.10;;;;;;;32.55;22.14;99889.77;108465;1270;72562;-71
2023/07/06 09:44:23;;;;;;;4.80;1.00;;;;;;;32.35;22.36;99878.41;108148;1269;66722;-70
2023/07/06 09:47:13;;;;;;;5.50;1.20;;;;;;;32.29;22.61;99880.08;108434;1270;71984;-72
2023/07/06 09:50:18;;;;;;;4.60;1.00;;;;;;;32.19;22.42;99878.60;108365;1269;57517;-70
2023/07/06 09:53:13;;;;;;;5.00;1.30;;;;;;;31.60;22.75;99881.13;108356;1268;60076;-71
2023/07/06 09:56:11;;;;;;;5.70;1.50;;;;;;;30.95;23.46;99882.98;108369;1270;72024;-73
2023/07/06 09:59:03;;;;;;;6.80;1.40;;;;;;;30.61;23.99;99887.11;108284;1270;67877;-73
2023/07/06 10:02:33;;;;;;;7.40;1.30;;;;;;;30.77;23.90;99884.44;108821;1261;71266;-70
2023/07/06 10:06:02;;;;;;;4.30;1.00;;;;;;;31.37;23.35;99885.09;108653;1265;56880;-70
2023/07/06 10:09:15;;;;;;;7.00;1.20;;;;;;;31.94;22.98;99881.91;108410;1268;61417;-71
2023/07/06 10:12:26;;;;;;;5.40;1.30;;;;;;;31.74;22.26;99877.16;108321;1268;72043;-69
2023/07/06 10:16:11;;;;;;;5.40;1.30;;;;;;;31.48;22.66;99880.68;108497;1268;68970;-69
2023/07/06 10:19:37;;;;;;;6.00;1.40;;;;;;;31.01;22.94;99885.05;108501;1267;73549;-74
2023/07/06 10:22:50;;;;;;;5.40;1.40;;;;;;;30.33;23.63;99887.17;108382;1267;57025;-73
2023/07/06 10:26:26;;;;;;;5.60;1.30;;;;;;;30.93;23.67;99883.45;108450;1268;60274;-71
2023/07/06 10:29:24;;;;;;;6.50;1.50;;;;;;;31.62;22.31;99880.02;108487;1267;72305;-71
2023/07/06 10:32:24;;;;;;;6.10;1.10;;;;;;;32.22;22.15;99885.17;108509;1266;68183;-74
2023/07/06 10:35:26;;;;;;;4.90;1.10;;;;;;;32.74;21.40;99883.02;108464;1267;73781;-70
2023/07/06 10:38:16;;;;;;;5.50;1.20;;;;;;;33.25;21.10;99879.71;108321;1267;56875;-70
2023/07/06 10:41:11;;;;;;;5.10;1.40;;;;;;;33.88;20.58;99877.61;108685;1262;60334;-70
2023/07/06 10:44:51;;;;;;;8.10;1.20;;;;;;;34.03;20.18;99883.86;109115;1256;70718;-71
2023/07/06 10:47:44;;;;;;;5.50;1.40;;;;;;;33.57;20.37;99884.53;108698;1264;68870;-70
2023/07/06 10:50:44;;;;;;;6.40;1.40;;;;;;;33.95;20.59;99885.61;108504;1264;73549;-72
2023/07/06 10:53:49;;;;;;;5.40;1.20;;;;;;;34.19;20.09;99890.58;108521;1264;59259;-71
2023/07/06 10:57:02;;;;;;;6.30;1.50;;;;;;;34.15;20.24;99890.79;108523;1264;61052;-72
2023/07/06 11:00:05;;;;;;;6.20;1.40;;;;;;;33.61;20.27;99896.61;108503;1265;72108;-74
2023/07/06 11:02:57;;;;;;;5.60;1.40;;;;;;;33.89;20.26;99888.65;108614;1264;67463;-72
2023/07/06 11:06:06;;;;;;;6.30;1.20;;;;;;;34.42;20.56;99898.84;108756;1264;72966;-70
2023/07/06 11:09:07;;;;;;;5.60;1.40;;;;;;;34.85;19.71;99901.73;108670;1263;56825;-70
2023/07/06 11:12:18;;;;;;;4.60;1.20;;;;;;;35.35;19.03;99898.83;108746;1264;60463;-71
2023/07/06 11:15:17;;;;;;;5.60;1.20;;;;;;;35.02;19.11;99902.46;108642;1263;72012;-72
2023/07/06 11:18:18;;;;;;;5.80;1.30;;;;;;;34.28;19.59;99898.07;108658;1264;67776;-69
2023/07/06 11:21:19;;;;;;;5.50;1.30;;;;;;;33.39;20.12;99903.90;108676;1265;73842;-69
2023/07/06 11:24:17;;;;;;;5.80;1.30;;;;;;;32.35;21.63;99905.11;108903;1260;57175;-70
2023/07/06 11:27:46;;;;;;;5.90;1.40;;;;;;;31.63;22.77;99908.08;108875;1256;58492;-70
2023/07/06 11:30:49;;;;;;;6.70;1.40;;;;;;;30.28;24.25;99918.56;108675;1264;72788;-70
2023/07/06 11:34:10;;;;;;;5.60;1.40;;;;;;;29.23;25.25;99920.20;108674;1263;69087;-74
2023/07/06 11:37:26;;;;;;;7.00;1.40;;;;;;;28.41;26.35;99926.06;108676;1262;72821;-72
2023/07/06 11:40:47;;;;;;;6.10;1.40;;;;;;;27.70;26.78;99928.61;108777;1265;59120;-71
2023/07/06 11:44:03;;;;;;;5.20;1.40;;;;;;;26.86;28.29;99935.77;108744;1264;60372;-71
2023/07/06 11:47:15;;;;;;;7.50;1.60;;;;;;;25.94;29.89;99945.41;108822;1264;69744;-70
2023/07/06 11:50:12;;;;;;;5.20;1.40;;;;;;;25.26;31.18;99944.48;108580;1265;66514;-74
2023/07/06 11:53:11;;;;;;;6.00;1.50;;;;;;;24.85;32.05;99950.39;108568;1265;72637;-72
2023/07/06 11:56:19;;;;;;;6.40;2.00;;;;;;;24.66;32.36;99953.84;108605;1268;58422;-72
2023/07/06 11:59:36;;;;;;;6.70;1.70;;;;;;;24.61;32.96;99949.09;108665;1265;60046;-74
2023/07/06 12:02:30;;;;;;;7.10;1.60;;;;;;;24.58;33.14;99954.05;108512;1267;72297;-72
2023/07/06 12:05:40;;;;;;;6.80;1.80;;;;;;;24.66;33.43;99958.08;108430;1267;67923;-70
2023/07/06 12:08:37;;;;;;;5.30;1.70;;;;;;;24.70;33.20;99962.16;108724;1260;72729;-73
2023/07/06 12:11:28;;;;;;;6.10;1.70;;;;;;;24.64;32.84;99961.78;108731;1262;57099;-71
2023/07/06 12:14:20;;;;;;;6.30;1.90;;;;;;;24.56;33.14;99963.27;108803;1260;59219;-76
2023/07/06 12:17:11;;;;;;;5.30;1.40;;;;;;;24.41;32.90;99960.38;108663;1261;73529;-70
2023/07/06 12:19:59;;;;;;;6.60;1.70;;;;;;;24.34;33.63;99965.45;108877;1262;67771;-72
2023/07/06 12:22:58;;;;;;;7.60;1.70;;;;;;;24.51;33.61;99966.91;108919;1261;73335;-73
2023/07/06 12:25:54;;;;;;;6.70;2.00;;;;;;;24.86;34.48;99967.45;108704;1260;262217;-73
2023/07/06 12:28:47;;;;;;;6.60;1.90;;;;;;;25.09;33.76;99963.66;108882;1260;60524;-71
2023/07/06 12:31:40;;;;;;;6.90;1.70;;;;;;;25.12;35.51;99963.90;108881;1261;70976;-69
2023/07/06 12:34:32;;;;;;;6.40;1.80;;;;;;;24.99;38.47;99971.46;108893;1260;67921;-72
2023/07/06 12:37:30;;;;;;;7.00;1.80;;;;;;;24.69;40.18;99978.29;108897;1260;73702;-73
2023/07/06 12:40:25;;;;;;;7.90;2.10;;;;;;;24.46;41.53;99968.68;108926;1258;58049;-74
2023/07/06 12:43:27;;;;;;;6.90;2.10;;;;;;;24.25;42.51;99968.69;108738;1262;60721;-71
2023/07/06 12:46:23;;;;;;;7.30;2.20;;;;;;;23.96;43.42;99966.66;108868;1262;72382;-70
2023/07/06 12:49:20;;;;;;;7.00;2.10;;;;;;;23.69;44.80;99974.86;108617;1262;66391;-71
2023/07/06 12:52:12;;;;;;;10.40;2.10;;;;;;;23.52;45.17;99975.19;108698;1262;71535;-74
2023/07/06 12:55:12;;;;;;;10.20;2.80;;;;;;;23.31;45.39;99982.49;108552;1265;57143;-71
2023/07/06 12:58:36;;;;;;;6.90;1.90;;;;;;;23.19;46.13;99987.27;108465;1268;60504;-70
2023/07/06 13:01:45;;;;;;;7.30;2.10;;;;;;;23.03;46.09;99987.34;108625;1267;70743;-71
2023/07/06 13:04:50;;;;;;;7.30;2.30;;;;;;;22.88;46.61;99987.23;108323;1268;69601;-69
2023/07/06 13:07:39;;;;;;;8.60;2.20;;;;;;;22.71;47.52;99989.36;108442;1267;71902;-64
2023/07/06 13:10:31;;;;;;;7.10;2.40;;;;;;;22.54;48.58;99993.91;108471;1266;58382;-69
2023/07/06 13:13:21;;;;;;;7.40;2.20;;;;;;;22.40;49.69;99993.44;108543;1264;58862;-70
2023/07/06 13:16:17;;;;;;;11.00;2.20;;;;;;;22.45;49.71;99994.17;108641;1263;72161;-69
2023/07/06 13:19:15;;;;;;;6.60;2.10;;;;;;;22.53;49.15;99995.89;108720;1263;68417;-66
2023/07/06 13:22:11;;;;;;;9.50;2.20;;;;;;;22.59;48.65;99996.69;108512;1264;73741;-69
2023/07/06 13:25:01;;;;;;;6.50;2.00;;;;;;;22.51;48.38;99995.38;108698;1262;57729;-65
2023/07/06 13:27:49;;;;;;;7.50;2.00;;;;;;;22.39;47.94;99998.40;108796;1264;59651;-66
2023/07/06 13:30:43;;;;;;;6.30;2.10;;;;;;;22.20;48.93;99997.14;108957;1262;71300;-65